sensor_id;sensor_type;location;lat;lon;timestamp;pressure;altitude;pressure_sealevel;temperature;humidity
7333;BME280;3707;43.618;25.342;2023-01-28T00:00:36;99719.94;;;1.93;100.00
7333;BME280;3707;43.618;25.342;2023-01-28T00:03:04;99727.69;;;1.95;100.00
7333;BME280;3707;43.618;25.342;2023-01-28T00:05:31;99722.13;;;1.84;100.00
7333;BME280;3707;43.618;25.342;2023-01-28T00:07:58;99723.59;;;1.79;100.00
7333;BME280;3707;43.618;25.342;2023-01-28T00:10:25;99716.47;;;1.72;100.00
7333;BME280;3707;43.618;25.342;2023-01-28T00:12:51;99727.63;;;1.74;100.00
7333;BME280;3707;43.618;25.342;2023-01-28T00:15:18;99693.13;;;1.65;100.00
7333;BME280;3707;43.618;25.342;2023-01-28T00:17:45;99717.88;;;1.85;100.00
7333;BME280;3707;43.618;25.342;2023-01-28T00:20:13;99722.78;;;1.99;100.00
7333;BME280;3707;43.618;25.342;2023-01-28T00:22:40;99733.94;;;2.02;100.00
7333;BME280;3707;43.618;25.342;2023-01-28T00:25:12;99637.88;;;1.47;100.00
7333;BME280;3707;43.618;25.342;2023-01-28T00:27:39;99733.47;;;2.10;100.00
7333;BME280;3707;43.618;25.342;2023-01-28T00:30:07;99733.84;;;2.19;100.00
7333;BME280;3707;43.618;25.342;2023-01-28T00:32:34;99738.03;;;2.17;100.00
7333;BME280;3707;43.618;25.342;2023-01-28T00:35:01;99720.69;;;2.10;100.00
7333;BME280;3707;43.618;25.342;2023-01-28T00:37:29;99719.59;;;2.05;100.00
7333;BME280;3707;43.618;25.342;2023-01-28T00:39:55;99746.63;;;2.00;100.00
7333;BME280;3707;43.618;25.342;2023-01-28T00:42:22;99746.91;;;2.06;100.00
7333;BME280;3707;43.618;25.342;2023-01-28T00:44:49;99734.81;;;1.83;100.00
7333;BME280;3707;43.618;25.342;2023-01-28T00:47:16;99733.25;;;1.86;100.00
7333;BME280;3707;43.618;25.342;2023-01-28T00:49:42;99739.88;;;1.81;100.00
7333;BME280;3707;43.618;25.342;2023-01-28T00:52:09;99756.72;;;1.97;100.00
7333;BME280;3707;43.618;25.342;2023-01-28T00:54:37;99755.78;;;2.14;100.00
7333;BME280;3707;43.618;25.342;2023-01-28T00:57:04;99739.94;;;2.02;100.00
7333;BME280;3707;43.618;25.342;2023-01-28T00:59:31;99760.72;;;2.10;100.00
7333;BME280;3707;43.618;25.342;2023-01-28T01:01:58;99754.28;;;2.19;100.00
7333;BME280;3707;43.618;25.342;2023-01-28T01:04:36;99759.03;;;2.10;100.00
7333;BME280;3707;43.618;25.342;2023-01-28T01:07:03;99759.84;;;2.09;100.00
7333;BME280;3707;43.618;25.342;2023-01-28T01:09:30;99764.53;;;2.00;100.00
7333;BME280;3707;43.618;25.342;2023-01-28T01:11:58;99758.88;;;2.07;100.00
7333;BME280;3707;43.618;25.342;2023-01-28T01:14:25;99766.25;;;1.99;100.00
7333;BME280;3707;43.618;25.342;2023-01-28T01:16:51;99756.59;;;1.94;100.00
7333;BME280;3707;43.618;25.342;2023-01-28T01:19:18;99752.56;;;1.80;100.00
7333;BME280;3707;43.618;25.342;2023-01-28T01:21:45;99756.47;;;1.91;100.00
7333;BME280;3707;43.618;25.342;2023-01-28T01:24:15;99761.66;;;1.92;100.00
7333;BME280;3707;43.618;25.342;2023-01-28T01:26:42;99762.25;;;1.87;100.00
7333;BME280;3707;43.618;25.342;2023-01-28T01:29:10;99741.88;;;1.88;100.00
7333;BME280;3707;43.618;25.342;2023-01-28T01:31:37;99761.31;;;2.04;100.00
7333;BME280;3707;43.618;25.342;2023-01-28T01:34:03;99745.03;;;2.02;100.00
7333;BME280;3707;43.618;25.342;2023-01-28T01:36:30;99766.84;;;2.13;100.00
7333;BME280;3707;43.618;25.342;2023-01-28T01:38:57;99768.72;;;2.17;100.00
7333;BME280;3707;43.618;25.342;2023-01-28T01:41:26;99772.66;;;2.30;100.00
7333;BME280;3707;43.618;25.342;2023-01-28T01:43:55;99742.06;;;2.12;100.00
7333;BME280;3707;43.618;25.342;2023-01-28T01:46:31;99782.88;;;2.30;100.00
7333;BME280;3707;43.618;25.342;2023-01-28T01:49:04;99762.38;;;2.09;100.00
7333;BME280;3707;43.618;25.342;2023-01-28T01:51:33;99748.25;;;1.98;100.00
7333;BME280;3707;43.618;25.342;2023-01-28T01:54:02;99778.78;;;2.14;100.00
7333;BME280;3707;43.618;25.342;2023-01-28T01:56:33;99778.66;;;2.11;100.00
7333;BME280;3707;43.618;25.342;2023-01-28T01:59:01;99778.31;;;2.04;100.00
7333;BME280;3707;43.618;25.342;2023-01-28T02:01:30;99767.63;;;1.93;100.00
7333;BME280;3707;43.618;25.342;2023-01-28T02:04:03;99757.81;;;1.83;100.00
7333;BME280;3707;43.618;25.342;2023-01-28T02:06:32;99781.88;;;2.07;100.00
7333;BME280;3707;43.618;25.342;2023-01-28T02:09:00;99781.41;;;1.96;100.00
7333;BME280;3707;43.618;25.342;2023-01-28T02:11:29;99768.91;;;1.83;100.00
7333;BME280;3707;43.618;25.342;2023-01-28T02:14:01;99790.78;;;1.96;100.00
7333;BME280;3707;43.618;25.342;2023-01-28T02:16:31;99777.59;;;2.06;100.00
7333;BME280;3707;43.618;25.342;2023-01-28T02:18:58;99788.53;;;2.04;100.00
7333;BME280;3707;43.618;25.342;2023-01-28T02:21:44;99794.41;;;2.20;100.00
7333;BME280;3707;43.618;25.342;2023-01-28T02:24:33;99800.88;;;2.31;100.00
7333;BME280;3707;43.618;25.342;2023-01-28T02:27:23;99802.22;;;2.23;100.00
7333;BME280;3707;43.618;25.342;2023-01-28T02:29:57;99802.09;;;2.20;100.00
7333;BME280;3707;43.618;25.342;2023-01-28T02:32:30;99770.25;;;1.94;100.00
7333;BME280;3707;43.618;25.342;2023-01-28T02:35:05;99808.78;;;2.18;100.00
7333;BME280;3707;43.618;25.342;2023-01-28T02:37:36;99807.88;;;2.16;100.00
7333;BME280;3707;43.618;25.342;2023-01-28T02:40:08;99793.41;;;2.17;100.00
7333;BME280;3707;43.618;25.342;2023-01-28T02:42:37;99816.34;;;2.34;100.00
7333;BME280;3707;43.618;25.342;2023-01-28T02:45:17;99815.91;;;2.44;100.00
7333;BME280;3707;43.618;25.342;2023-01-28T02:47:46;99802.69;;;2.34;100.00
7333;BME280;3707;43.618;25.342;2023-01-28T02:50:30;99819.59;;;2.51;100.00
7333;BME280;3707;43.618;25.342;2023-01-28T02:53:10;99830.84;;;2.55;100.00
7333;BME280;3707;43.618;25.342;2023-01-28T02:56:07;99824.25;;;2.60;100.00
7333;BME280;3707;43.618;25.342;2023-01-28T02:58:43;99836.09;;;2.58;100.00
7333;BME280;3707;43.618;25.342;2023-01-28T03:01:18;99832.84;;;2.62;100.00
7333;BME280;3707;43.618;25.342;2023-01-28T03:03:56;99836.22;;;2.61;100.00
7333;BME280;3707;43.618;25.342;2023-01-28T03:06:27;99836.22;;;2.61;100.00
7333;BME280;3707;43.618;25.342;2023-01-28T03:08:58;99819.81;;;2.56;100.00
7333;BME280;3707;43.618;25.342;2023-01-28T03:11:47;99833.25;;;2.71;100.00
7333;BME280;3707;43.618;25.342;2023-01-28T03:14:34;99842.06;;;2.77;100.00
7333;BME280;3707;43.618;25.342;2023-01-28T03:17:24;99841.97;;;2.76;100.00
7333;BME280;3707;43.618;25.342;2023-01-28T03:20:11;99853.97;;;2.77;100.00
7333;BME280;3707;43.618;25.342;2023-01-28T03:22:59;99853.31;;;2.81;100.00
7333;BME280;3707;43.618;25.342;2023-01-28T03:25:45;99855.03;;;2.82;100.00
7333;BME280;3707;43.618;25.342;2023-01-28T03:28:32;99851.75;;;2.84;100.00
7333;BME280;3707;43.618;25.342;2023-01-28T03:31:18;99855.50;;;2.92;100.00
7333;BME280;3707;43.618;25.342;2023-01-28T03:34:05;99860.56;;;2.91;100.00
7333;BME280;3707;43.618;25.342;2023-01-28T03:36:52;99860.16;;;2.82;100.00
7333;BME280;3707;43.618;25.342;2023-01-28T03:39:23;99865.56;;;2.69;100.00
7333;BME280;3707;43.618;25.342;2023-01-28T03:41:58;99861.78;;;2.80;100.00
7333;BME280;3707;43.618;25.342;2023-01-28T03:44:26;99859.84;;;2.74;100.00
7333;BME280;3707;43.618;25.342;2023-01-28T03:47:10;99864.13;;;2.75;100.00
7333;BME280;3707;43.618;25.342;2023-01-28T03:49:40;99865.41;;;2.85;100.00
7333;BME280;3707;43.618;25.342;2023-01-28T03:52:07;99865.34;;;2.83;100.00
7333;BME280;3707;43.618;25.342;2023-01-28T03:54:34;99854.03;;;2.78;100.00
7333;BME280;3707;43.618;25.342;2023-01-28T03:57:01;99868.84;;;2.85;100.00
7333;BME280;3707;43.618;25.342;2023-01-28T03:59:28;99873.25;;;2.69;100.00
7333;BME280;3707;43.618;25.342;2023-01-28T04:01:54;99871.50;;;2.68;100.00
7333;BME280;3707;43.618;25.342;2023-01-28T04:04:21;99881.72;;;2.68;100.00
7333;BME280;3707;43.618;25.342;2023-01-28T04:06:51;99881.34;;;2.78;100.00
7333;BME280;3707;43.618;25.342;2023-01-28T04:09:18;99881.34;;;2.78;100.00
7333;BME280;3707;43.618;25.342;2023-01-28T04:11:46;99893.19;;;2.76;100.00
7333;BME280;3707;43.618;25.342;2023-01-28T04:14:12;99877.03;;;2.58;100.00
7333;BME280;3707;43.618;25.342;2023-01-28T04:16:39;99894.53;;;2.68;100.00
7333;BME280;3707;43.618;25.342;2023-01-28T04:19:06;99886.13;;;2.51;100.00
7333;BME280;3707;43.618;25.342;2023-01-28T04:21:33;99885.38;;;2.54;100.00
7333;BME280;3707;43.618;25.342;2023-01-28T04:24:01;99890.50;;;2.54;100.00
7333;BME280;3707;43.618;25.342;2023-01-28T04:26:28;99887.22;;;2.56;100.00
7333;BME280;3707;43.618;25.342;2023-01-28T04:28:55;99886.88;;;2.48;100.00
7333;BME280;3707;43.618;25.342;2023-01-28T04:31:21;99896.09;;;2.45;100.00
7333;BME280;3707;43.618;25.342;2023-01-28T04:33:49;99901.81;;;2.39;100.00
7333;BME280;3707;43.618;25.342;2023-01-28T04:36:16;99898.19;;;2.34;100.00
7333;BME280;3707;43.618;25.342;2023-01-28T04:38:43;99890.31;;;2.30;100.00
7333;BME280;3707;43.618;25.342;2023-01-28T04:41:11;99889.16;;;2.23;100.00
7333;BME280;3707;43.618;25.342;2023-01-28T04:43:38;99892.66;;;2.25;100.00
7333;BME280;3707;43.618;25.342;2023-01-28T04:46:05;99892.19;;;2.34;100.00
7333;BME280;3707;43.618;25.342;2023-01-28T04:48:32;99877.94;;;2.20;100.00
7333;BME280;3707;43.618;25.342;2023-01-28T04:51:01;99873.59;;;2.19;100.00
7333;BME280;3707;43.618;25.342;2023-01-28T04:53:27;99899.94;;;2.35;100.00
7333;BME280;3707;43.618;25.342;2023-01-28T04:55:54;99900.75;;;2.34;100.00
7333;BME280;3707;43.618;25.342;2023-01-28T04:58:22;99899.59;;;2.47;100.00
7333;BME280;3707;43.618;25.342;2023-01-28T05:00:53;99901.81;;;2.39;100.00
7333;BME280;3707;43.618;25.342;2023-01-28T05:03:21;99900.97;;;2.39;100.00
7333;BME280;3707;43.618;25.342;2023-01-28T05:05:47;99909.00;;;2.29;100.00
7333;BME280;3707;43.618;25.342;2023-01-28T05:08:15;99909.22;;;2.33;100.00
7333;BME280;3707;43.618;25.342;2023-01-28T05:10:42;99916.78;;;2.30;100.00
7333;BME280;3707;43.618;25.342;2023-01-28T05:13:09;99914.78;;;2.25;100.00
7333;BME280;3707;43.618;25.342;2023-01-28T05:15:37;99900.84;;;2.18;100.00
7333;BME280;3707;43.618;25.342;2023-01-28T05:18:04;99923.63;;;2.31;100.00
7333;BME280;3707;43.618;25.342;2023-01-28T05:20:31;99924.56;;;2.33;100.00
7333;BME280;3707;43.618;25.342;2023-01-28T05:22:57;99905.09;;;2.18;100.00
7333;BME280;3707;43.618;25.342;2023-01-28T05:25:24;99898.69;;;2.08;100.00
7333;BME280;3707;43.618;25.342;2023-01-28T05:27:52;99917.81;;;2.16;100.00
7333;BME280;3707;43.618;25.342;2023-01-28T05:30:19;99898.28;;;1.99;100.00
7333;BME280;3707;43.618;25.342;2023-01-28T05:32:47;99926.38;;;2.17;100.00
7333;BME280;3707;43.618;25.342;2023-01-28T05:35:15;99933.56;;;2.06;100.00
7333;BME280;3707;43.618;25.342;2023-01-28T05:37:41;99917.59;;;1.92;100.00
7333;BME280;3707;43.618;25.342;2023-01-28T05:40:09;99931.00;;;2.06;100.00
7333;BME280;3707;43.618;25.342;2023-01-28T05:42:36;99932.47;;;2.01;100.00
7333;BME280;3707;43.618;25.342;2023-01-28T05:45:03;99941.81;;;2.00;100.00
7333;BME280;3707;43.618;25.342;2023-01-28T05:47:30;99935.41;;;1.91;100.00
7333;BME280;3707;43.618;25.342;2023-01-28T05:50:00;99943.28;;;1.95;100.00
7333;BME280;3707;43.618;25.342;2023-01-28T05:52:26;99946.03;;;2.00;100.00
7333;BME280;3707;43.618;25.342;2023-01-28T05:54:53;99950.50;;;2.04;100.00
7333;BME280;3707;43.618;25.342;2023-01-28T05:57:20;99956.22;;;1.98;100.00
7333;BME280;3707;43.618;25.342;2023-01-28T05:59:47;99953.78;;;2.02;100.00
7333;BME280;3707;43.618;25.342;2023-01-28T06:02:13;99963.72;;;2.13;100.00
7333;BME280;3707;43.618;25.342;2023-01-28T06:04:40;99949.56;;;2.02;100.00
7333;BME280;3707;43.618;25.342;2023-01-28T06:07:08;99964.97;;;2.04;100.00
7333;BME280;3707;43.618;25.342;2023-01-28T06:09:37;99973.13;;;2.14;100.00
7333;BME280;3707;43.618;25.342;2023-01-28T06:12:05;99934.88;;;2.35;100.00
7333;BME280;3707;43.618;25.342;2023-01-28T06:14:31;99958.03;;;2.38;100.00
7333;BME280;3707;43.618;25.342;2023-01-28T06:16:58;99966.50;;;2.37;100.00
7333;BME280;3707;43.618;25.342;2023-01-28T06:19:25;99970.25;;;2.26;100.00
7333;BME280;3707;43.618;25.342;2023-01-28T06:21:52;99965.75;;;2.20;100.00
7333;BME280;3707;43.618;25.342;2023-01-28T06:24:20;99972.78;;;2.24;100.00
7333;BME280;3707;43.618;25.342;2023-01-28T06:26:47;99980.34;;;2.23;100.00
7333;BME280;3707;43.618;25.342;2023-01-28T06:29:14;99976.88;;;2.03;100.00
7333;BME280;3707;43.618;25.342;2023-01-28T06:31:41;99980.66;;;2.11;100.00
7333;BME280;3707;43.618;25.342;2023-01-28T06:34:08;99979.69;;;2.27;100.00
7333;BME280;3707;43.618;25.342;2023-01-28T06:36:35;99984.44;;;2.19;100.00
7333;BME280;3707;43.618;25.342;2023-01-28T06:39:03;99988.13;;;2.24;100.00
7333;BME280;3707;43.618;25.342;2023-01-28T06:41:31;99994.81;;;2.22;100.00
7333;BME280;3707;43.618;25.342;2023-01-28T06:43:58;99988.25;;;2.27;100.00
7333;BME280;3707;43.618;25.342;2023-01-28T06:46:26;99994.97;;;2.25;100.00
7333;BME280;3707;43.618;25.342;2023-01-28T06:48:52;99998.19;;;2.39;100.00
7333;BME280;3707;43.618;25.342;2023-01-28T06:51:19;99989.63;;;2.58;100.00
7333;BME280;3707;43.618;25.342;2023-01-28T06:53:46;99991.38;;;2.59;100.00
7333;BME280;3707;43.618;25.342;2023-01-28T06:56:13;99969.09;;;2.56;100.00
7333;BME280;3707;43.618;25.342;2023-01-28T06:58:41;99992.63;;;2.67;100.00
7333;BME280;3707;43.618;25.342;2023-01-28T07:01:08;100000.50;;;2.34;100.00
7333;BME280;3707;43.618;25.342;2023-01-28T07:03:35;99976.41;;;2.29;100.00
7333;BME280;3707;43.618;25.342;2023-01-28T07:06:02;99991.06;;;2.33;100.00
7333;BME280;3707;43.618;25.342;2023-01-28T07:08:29;100011.59;;;2.53;100.00
7333;BME280;3707;43.618;25.342;2023-01-28T07:10:56;100017.09;;;2.42;100.00
7333;BME280;3707;43.618;25.342;2023-01-28T07:13:22;100017.44;;;2.32;100.00
7333;BME280;3707;43.618;25.342;2023-01-28T07:15:51;100020.75;;;2.30;100.00
7333;BME280;3707;43.618;25.342;2023-01-28T07:18:17;100025.31;;;2.35;100.00
7333;BME280;3707;43.618;25.342;2023-01-28T07:20:44;100022.53;;;2.50;100.00
7333;BME280;3707;43.618;25.342;2023-01-28T07:23:11;100034.19;;;2.43;100.00
7333;BME280;3707;43.618;25.342;2023-01-28T07:25:38;100037.91;;;2.32;100.00
7333;BME280;3707;43.618;25.342;2023-01-28T07:28:04;100040.97;;;2.43;100.00
7333;BME280;3707;43.618;25.342;2023-01-28T07:30:31;100035.22;;;2.29;100.00
7333;BME280;3707;43.618;25.342;2023-01-28T07:33:00;100045.44;;;2.29;100.00
7333;BME280;3707;43.618;25.342;2023-01-28T07:35:27;100018.22;;;2.12;100.00
7333;BME280;3707;43.618;25.342;2023-01-28T07:37:55;100045.91;;;2.21;100.00
7333;BME280;3707;43.618;25.342;2023-01-28T07:40:22;100046.19;;;2.27;100.00
7333;BME280;3707;43.618;25.342;2023-01-28T07:42:49;100049.28;;;2.20;100.00
7333;BME280;3707;43.618;25.342;2023-01-28T07:45:17;100034.69;;;2.36;100.00
7333;BME280;3707;43.618;25.342;2023-01-28T07:47:44;100014.53;;;2.42;100.00
7333;BME280;3707;43.618;25.342;2023-01-28T07:50:12;100035.69;;;2.58;100.00
7333;BME280;3707;43.618;25.342;2023-01-28T07:52:41;100034.34;;;2.29;100.00
7333;BME280;3707;43.618;25.342;2023-01-28T07:55:10;100039.34;;;2.63;100.00
7333;BME280;3707;43.618;25.342;2023-01-28T07:57:47;100024.00;;;2.63;100.00
7333;BME280;3707;43.618;25.342;2023-01-28T08:00:15;100047.41;;;2.72;100.00
7333;BME280;3707;43.618;25.342;2023-01-28T08:02:42;100051.66;;;2.71;100.00
7333;BME280;3707;43.618;25.342;2023-01-28T08:05:14;100050.53;;;2.84;100.00
7333;BME280;3707;43.618;25.342;2023-01-28T08:07:41;100057.53;;;2.69;100.00
7333;BME280;3707;43.618;25.342;2023-01-28T08:10:09;100056.88;;;2.73;100.00
7333;BME280;3707;43.618;25.342;2023-01-28T08:12:36;100049.13;;;2.54;100.00
7333;BME280;3707;43.618;25.342;2023-01-28T08:15:04;100065.91;;;2.84;100.00
7333;BME280;3707;43.618;25.342;2023-01-28T08:17:31;100058.00;;;2.79;100.00
7333;BME280;3707;43.618;25.342;2023-01-28T08:19:58;100069.47;;;2.87;100.00
7333;BME280;3707;43.618;25.342;2023-01-28T08:22:27;100042.53;;;3.15;100.00
7333;BME280;3707;43.618;25.342;2023-01-28T08:24:53;100066.41;;;3.14;100.00
7333;BME280;3707;43.618;25.342;2023-01-28T08:27:20;100042.88;;;3.03;100.00
7333;BME280;3707;43.618;25.342;2023-01-28T08:29:48;100075.88;;;3.35;100.00
7333;BME280;3707;43.618;25.342;2023-01-28T08:32:14;100060.19;;;3.28;100.00
7333;BME280;3707;43.618;25.342;2023-01-28T08:34:41;100081.50;;;3.46;100.00
7333;BME280;3707;43.618;25.342;2023-01-28T08:37:08;100086.06;;;3.53;100.00
7333;BME280;3707;43.618;25.342;2023-01-28T08:39:36;100052.31;;;3.84;100.00
7333;BME280;3707;43.618;25.342;2023-01-28T08:42:04;100073.06;;;3.90;100.00
7333;BME280;3707;43.618;25.342;2023-01-28T08:44:31;100076.16;;;4.02;100.00
7333;BME280;3707;43.618;25.342;2023-01-28T08:46:58;100074.81;;;4.32;100.00
7333;BME280;3707;43.618;25.342;2023-01-28T08:49:25;100106.91;;;4.43;100.00
7333;BME280;3707;43.618;25.342;2023-01-28T08:51:52;100107.41;;;4.56;100.00
7333;BME280;3707;43.618;25.342;2023-01-28T08:54:20;100124.19;;;4.47;100.00
7333;BME280;3707;43.618;25.342;2023-01-28T08:56:48;100119.84;;;4.46;100.00
7333;BME280;3707;43.618;25.342;2023-01-28T08:59:16;100119.69;;;4.42;100.00
7333;BME280;3707;43.618;25.342;2023-01-28T09:01:43;100123.72;;;4.58;100.00
7333;BME280;3707;43.618;25.342;2023-01-28T09:04:10;100129.22;;;4.24;100.00
7333;BME280;3707;43.618;25.342;2023-01-28T09:06:36;100121.56;;;4.25;100.00
7333;BME280;3707;43.618;25.342;2023-01-28T09:09:03;100118.31;;;4.29;100.00
7333;BME280;3707;43.618;25.342;2023-01-28T09:11:30;100115.38;;;4.41;100.00
7333;BME280;3707;43.618;25.342;2023-01-28T09:13:58;100121.81;;;4.52;100.00
7333;BME280;3707;43.618;25.342;2023-01-28T09:16:25;100100.88;;;4.43;100.00
7333;BME280;3707;43.618;25.342;2023-01-28T09:18:52;100105.69;;;4.13;100.00
7333;BME280;3707;43.618;25.342;2023-01-28T09:21:20;100115.22;;;4.81;100.00
7333;BME280;3707;43.618;25.342;2023-01-28T09:23:47;100107.75;;;5.09;100.00
7333;BME280;3707;43.618;25.342;2023-01-28T09:26:13;100082.66;;;5.75;100.00
7333;BME280;3707;43.618;25.342;2023-01-28T09:28:40;100126.44;;;5.05;100.00
7333;BME280;3707;43.618;25.342;2023-01-28T09:31:09;100096.16;;;5.20;100.00
7333;BME280;3707;43.618;25.342;2023-01-28T09:33:38;100120.97;;;5.43;100.00
7333;BME280;3707;43.618;25.342;2023-01-28T09:36:07;100116.94;;;5.26;100.00
7333;BME280;3707;43.618;25.342;2023-01-28T09:38:34;100119.69;;;5.55;100.00
7333;BME280;3707;43.618;25.342;2023-01-28T09:41:03;100128.75;;;5.69;100.00
7333;BME280;3707;43.618;25.342;2023-01-28T09:43:49;100135.41;;;5.64;100.00
7333;BME280;3707;43.618;25.342;2023-01-28T09:46:30;100145.50;;;5.81;100.00
7333;BME280;3707;43.618;25.342;2023-01-28T09:48:58;100140.00;;;5.96;100.00
7333;BME280;3707;43.618;25.342;2023-01-28T09:51:31;100143.06;;;6.35;100.00
7333;BME280;3707;43.618;25.342;2023-01-28T09:54:03;100090.16;;;6.44;100.00
7333;BME280;3707;43.618;25.342;2023-01-28T09:56:35;100139.47;;;6.85;100.00
7333;BME280;3707;43.618;25.342;2023-01-28T09:59:15;100131.41;;;7.01;100.00
7333;BME280;3707;43.618;25.342;2023-01-28T10:01:49;100155.00;;;7.15;100.00
7333;BME280;3707;43.618;25.342;2023-01-28T10:04:26;100149.16;;;7.20;100.00
7333;BME280;3707;43.618;25.342;2023-01-28T10:07:10;100160.53;;;7.27;100.00
7333;BME280;3707;43.618;25.342;2023-01-28T10:09:47;100164.28;;;6.81;100.00
7333;BME280;3707;43.618;25.342;2023-01-28T10:12:37;100154.28;;;6.90;100.00
7333;BME280;3707;43.618;25.342;2023-01-28T10:15:25;100167.56;;;6.76;100.00
7333;BME280;3707;43.618;25.342;2023-01-28T10:17:58;100165.03;;;6.25;100.00
7333;BME280;3707;43.618;25.342;2023-01-28T10:20:29;100156.53;;;6.80;100.00
7333;BME280;3707;43.618;25.342;2023-01-28T10:23:01;100162.38;;;7.03;100.00
7333;BME280;3707;43.618;25.342;2023-01-28T10:25:31;100167.09;;;7.17;100.00
7333;BME280;3707;43.618;25.342;2023-01-28T10:28:00;100170.75;;;7.54;100.00
7333;BME280;3707;43.618;25.342;2023-01-28T10:30:29;100153.34;;;7.76;100.00
7333;BME280;3707;43.618;25.342;2023-01-28T10:33:03;100175.69;;;8.07;100.00
7333;BME280;3707;43.618;25.342;2023-01-28T10:35:34;100144.44;;;7.65;100.00
7333;BME280;3707;43.618;25.342;2023-01-28T10:38:06;100159.66;;;7.56;100.00
7333;BME280;3707;43.618;25.342;2023-01-28T10:40:34;100157.59;;;7.15;100.00
7333;BME280;3707;43.618;25.342;2023-01-28T10:43:01;100160.31;;;7.19;100.00
7333;BME280;3707;43.618;25.342;2023-01-28T10:45:30;100164.72;;;7.23;100.00
7333;BME280;3707;43.618;25.342;2023-01-28T10:48:06;100160.63;;;7.60;100.00
7333;BME280;3707;43.618;25.342;2023-01-28T10:50:34;100160.78;;;7.66;100.00
7333;BME280;3707;43.618;25.342;2023-01-28T10:53:02;100165.94;;;7.97;100.00
7333;BME280;3707;43.618;25.342;2023-01-28T10:55:34;100140.47;;;8.11;100.00
7333;BME280;3707;43.618;25.342;2023-01-28T10:58:04;100129.47;;;7.85;100.00
7333;BME280;3707;43.618;25.342;2023-01-28T11:00:34;100161.81;;;8.04;100.00
7333;BME280;3707;43.618;25.342;2023-01-28T11:03:03;100173.50;;;8.22;100.00
7333;BME280;3707;43.618;25.342;2023-01-28T11:05:30;100171.66;;;7.85;100.00
7333;BME280;3707;43.618;25.342;2023-01-28T11:08:06;100170.88;;;7.88;100.00
7333;BME280;3707;43.618;25.342;2023-01-28T11:10:38;100161.78;;;8.02;100.00
7333;BME280;3707;43.618;25.342;2023-01-28T11:13:14;100141.63;;;8.55;100.00
7333;BME280;3707;43.618;25.342;2023-01-28T11:15:45;100169.44;;;7.99;100.00
7333;BME280;3707;43.618;25.342;2023-01-28T11:18:17;100171.78;;;7.90;100.00
7333;BME280;3707;43.618;25.342;2023-01-28T11:20:50;100169.78;;;7.48;100.00
7333;BME280;3707;43.618;25.342;2023-01-28T11:23:21;100167.28;;;7.83;100.00
7333;BME280;3707;43.618;25.342;2023-01-28T11:25:58;100171.53;;;7.81;100.00
7333;BME280;3707;43.618;25.342;2023-01-28T11:28:25;100161.38;;;6.44;100.00
7333;BME280;3707;43.618;25.342;2023-01-28T11:30:55;100142.91;;;6.57;100.00
7333;BME280;3707;43.618;25.342;2023-01-28T11:33:30;100143.38;;;7.27;100.00
7333;BME280;3707;43.618;25.342;2023-01-28T11:36:04;100162.56;;;7.67;100.00
7333;BME280;3707;43.618;25.342;2023-01-28T11:38:32;100145.53;;;7.75;100.00
7333;BME280;3707;43.618;25.342;2023-01-28T11:40:59;100156.44;;;7.05;100.00
7333;BME280;3707;43.618;25.342;2023-01-28T11:43:27;100159.56;;;6.95;100.00
7333;BME280;3707;43.618;25.342;2023-01-28T11:46:01;100147.88;;;7.06;100.00
7333;BME280;3707;43.618;25.342;2023-01-28T11:48:40;100140.59;;;7.51;100.00
7333;BME280;3707;43.618;25.342;2023-01-28T11:51:23;100149.94;;;8.10;100.00
7333;BME280;3707;43.618;25.342;2023-01-28T11:54:04;100147.13;;;8.01;100.00
7333;BME280;3707;43.618;25.342;2023-01-28T11:57:05;100149.78;;;7.41;100.00
7333;BME280;3707;43.618;25.342;2023-01-28T11:59:49;100141.03;;;7.36;100.00
7333;BME280;3707;43.618;25.342;2023-01-28T12:02:48;100152.09;;;7.04;100.00
7333;BME280;3707;43.618;25.342;2023-01-28T12:05:38;100153.22;;;6.57;100.00
7333;BME280;3707;43.618;25.342;2023-01-28T12:08:11;100153.13;;;6.81;100.00
7333;BME280;3707;43.618;25.342;2023-01-28T12:10:48;100136.78;;;6.27;100.00
7333;BME280;3707;43.618;25.342;2023-01-28T12:13:32;100130.47;;;5.92;100.00
7333;BME280;3707;43.618;25.342;2023-01-28T12:16:20;100152.31;;;6.30;100.00
7333;BME280;3707;43.618;25.342;2023-01-28T12:19:08;100154.72;;;6.51;100.00
7333;BME280;3707;43.618;25.342;2023-01-28T12:21:53;100146.38;;;6.58;100.00
7333;BME280;3707;43.618;25.342;2023-01-28T12:24:41;100153.50;;;6.39;100.00
7333;BME280;3707;43.618;25.342;2023-01-28T12:27:25;100153.44;;;6.63;100.00
7333;BME280;3707;43.618;25.342;2023-01-28T12:30:01;100156.13;;;6.68;100.00
7333;BME280;3707;43.618;25.342;2023-01-28T12:32:39;100146.28;;;6.55;100.00
7333;BME280;3707;43.618;25.342;2023-01-28T12:35:34;100144.19;;;6.70;100.00
7333;BME280;3707;43.618;25.342;2023-01-28T12:38:13;100145.34;;;6.79;100.00
7333;BME280;3707;43.618;25.342;2023-01-28T12:40:56;100150.00;;;6.64;100.00
7333;BME280;3707;43.618;25.342;2023-01-28T12:43:40;100133.16;;;6.47;100.00
7333;BME280;3707;43.618;25.342;2023-01-28T12:46:14;100150.00;;;6.37;100.00
7333;BME280;3707;43.618;25.342;2023-01-28T12:48:45;100145.75;;;6.38;100.00
7333;BME280;3707;43.618;25.342;2023-01-28T12:51:15;100150.47;;;6.26;100.00
7333;BME280;3707;43.618;25.342;2023-01-28T12:53:48;100128.28;;;6.29;100.00
7333;BME280;3707;43.618;25.342;2023-01-28T12:56:18;100150.41;;;6.24;100.00
7333;BME280;3707;43.618;25.342;2023-01-28T12:58:49;100151.63;;;5.85;100.00
7333;BME280;3707;43.618;25.342;2023-01-28T13:01:22;100148.53;;;5.71;100.00
7333;BME280;3707;43.618;25.342;2023-01-28T13:03:55;100141.91;;;5.53;100.00
7333;BME280;3707;43.618;25.342;2023-01-28T13:06:28;100128.88;;;5.24;100.00
7333;BME280;3707;43.618;25.342;2023-01-28T13:09:00;100118.22;;;5.15;100.00
7333;BME280;3707;43.618;25.342;2023-01-28T13:11:33;100131.47;;;5.02;100.00
7333;BME280;3707;43.618;25.342;2023-01-28T13:14:02;100150.06;;;4.96;100.00
7333;BME280;3707;43.618;25.342;2023-01-28T13:16:30;100145.34;;;4.85;100.00
7333;BME280;3707;43.618;25.342;2023-01-28T13:19:05;100127.69;;;4.72;100.00
7333;BME280;3707;43.618;25.342;2023-01-28T13:21:34;100020.44;;;4.20;100.00
7333;BME280;3707;43.618;25.342;2023-01-28T13:24:21;100157.94;;;4.79;100.00